TAIP21 YCBG-YCBG
Flight info
| Callsign | TAIP21 |
|---|---|
| Flight time | 0h 2m |
| Altitude | 3500 |
| Route | VFR |
| Aircraft | EC45/L-SDFGRY/C |
Departure
| Time | 2026-04-23 09:44 |
|---|---|
| Airport | Cambridge Aerodrome (YCBG) |
Arrival
| Time | 2026-04-23 09:46 |
|---|---|
| Airport | Cambridge Aerodrome (YCBG) |
| Time | Latitude | Longitude | Altitude | Speed | Heading |
|---|---|---|---|---|---|
| 2026-04-23 09:24 | -42.82882 | 147.47662 | 55 ft | 0 kts | 195° |
| 2026-04-23 09:33 | -42.82882 | 147.47656 | 61 ft | 1 kts | 214° |
| 2026-04-23 09:34 | -42.82884 | 147.47635 | 61 ft | 1 kts | 287° |
| 2026-04-23 09:34 | -42.82879 | 147.47610 | 60 ft | 3 kts | 288° |
| 2026-04-23 09:34 | -42.82863 | 147.47584 | 59 ft | 4 kts | 15° |
| 2026-04-23 09:34 | -42.82844 | 147.47586 | 55 ft | 0 kts | 10° |
| 2026-04-23 09:35 | -42.82844 | 147.47588 | 57 ft | 1 kts | 20° |
| 2026-04-23 09:35 | -42.82816 | 147.47580 | 68 ft | 8 kts | 306° |
| 2026-04-23 09:35 | -42.82788 | 147.47472 | 91 ft | 14 kts | 285° |
| 2026-04-23 09:36 | -42.82753 | 147.47351 | 123 ft | 14 kts | 299° |
| 2026-04-23 09:36 | -42.82697 | 147.47102 | 240 ft | 47 kts | 290° |
| 2026-04-23 09:36 | -42.82908 | 147.46684 | 475 ft | 70 kts | 189° |
| 2026-04-23 09:36 | -42.83301 | 147.47092 | 565 ft | 88 kts | 98° |
| 2026-04-23 09:37 | -42.83414 | 147.47987 | 520 ft | 100 kts | 80° |
| 2026-04-23 09:37 | -42.83165 | 147.48683 | 565 ft | 79 kts | 342° |
| 2026-04-23 09:37 | -42.82905 | 147.48145 | 499 ft | 68 kts | 271° |
| 2026-04-23 09:37 | -42.82798 | 147.47598 | 510 ft | 51 kts | 268° |
| 2026-04-23 09:38 | -42.82735 | 147.47159 | 502 ft | 45 kts | 263° |
| 2026-04-23 09:38 | -42.82798 | 147.46643 | 597 ft | 76 kts | 233° |
| 2026-04-23 09:38 | -42.83364 | 147.46614 | 632 ft | 99 kts | 135° |
| 2026-04-23 09:38 | -42.83559 | 147.47485 | 532 ft | 94 kts | 83° |
| 2026-04-23 09:39 | -42.83565 | 147.48317 | 498 ft | 80 kts | 76° |
| 2026-04-23 09:39 | -42.83320 | 147.48827 | 390 ft | 59 kts | 355° |
| 2026-04-23 09:39 | -42.83027 | 147.48608 | 159 ft | 42 kts | 270° |
| 2026-04-23 09:39 | -42.82962 | 147.48357 | 42 ft | 16 kts | 272° |
| 2026-04-23 09:40 | -42.82949 | 147.48296 | 36 ft | 1 kts | 285° |
| 2026-04-23 09:40 | -42.82928 | 147.48200 | 57 ft | 30 kts | 288° |
| 2026-04-23 09:40 | -42.82829 | 147.47676 | 178 ft | 78 kts | 283° |
| 2026-04-23 09:40 | -42.82673 | 147.46892 | 369 ft | 92 kts | 280° |
| 2026-04-23 09:41 | -42.82942 | 147.46178 | 545 ft | 98 kts | 198° |
| 2026-04-23 09:41 | -42.83536 | 147.46523 | 576 ft | 100 kts | 109° |
| 2026-04-23 09:41 | -42.83709 | 147.47395 | 567 ft | 89 kts | 88° |
| 2026-04-23 09:41 | -42.83747 | 147.48215 | 529 ft | 85 kts | 78° |
| 2026-04-23 09:42 | -42.83669 | 147.48985 | 504 ft | 78 kts | 57° |
| 2026-04-23 09:42 | -42.83231 | 147.49118 | 348 ft | 76 kts | 308° |
| 2026-04-23 09:42 | -42.82997 | 147.48509 | 115 ft | 61 kts | 270° |
| 2026-04-23 09:42 | -42.82925 | 147.48160 | 48 ft | 16 kts | 272° |
| 2026-04-23 09:43 | -42.82909 | 147.48096 | 45 ft | 11 kts | 289° |
| 2026-04-23 09:43 | -42.82858 | 147.47830 | 107 ft | 54 kts | 282° |
| 2026-04-23 09:43 | -42.82731 | 147.47218 | 297 ft | 79 kts | 285° |
| 2026-04-23 09:43 | -42.82575 | 147.46433 | 513 ft | 92 kts | 283° |
| 2026-04-23 09:44 | -42.82659 | 147.45534 | 588 ft | 109 kts | 230° |
| 2026-04-23 09:44 | -42.83373 | 147.45381 | 682 ft | 114 kts | 152° |
| 2026-04-23 09:44 | -42.83785 | 147.46291 | 639 ft | 122 kts | 95° |
| 2026-04-23 09:44 | -42.83868 | 147.47463 | 601 ft | 124 kts | 85° |
| 2026-04-23 09:45 | -42.83850 | 147.48628 | 587 ft | 123 kts | 79° |
| 2026-04-23 09:45 | -42.83564 | 147.49654 | 532 ft | 119 kts | 25° |
| 2026-04-23 09:45 | -42.83004 | 147.49231 | 411 ft | 108 kts | 275° |
| 2026-04-23 09:45 | -42.82919 | 147.48323 | 467 ft | 83 kts | 280° |
| 2026-04-23 09:46 | -42.82843 | 147.47633 | 544 ft | 66 kts | 278° |
| 2026-04-23 09:46 | -42.82738 | 147.47069 | 619 ft | 54 kts | 281° |
| 2026-04-23 09:46 | -42.82632 | 147.46617 | 666 ft | 46 kts | 283° |
| 2026-04-23 09:46 | -42.82671 | 147.46223 | 656 ft | 47 kts | 219° |
| 2026-04-23 09:47 | -42.82997 | 147.46053 | 605 ft | 55 kts | 179° |
| 2026-04-23 09:47 | -42.83385 | 147.46233 | 514 ft | 70 kts | 117° |
| 2026-04-23 09:47 | -42.83547 | 147.46841 | 497 ft | 68 kts | 88° |
| 2026-04-23 09:47 | -42.83601 | 147.47481 | 480 ft | 65 kts | 80° |
| 2026-04-23 09:48 | -42.83627 | 147.48050 | 485 ft | 56 kts | 79° |
| 2026-04-23 09:48 | -42.83653 | 147.48535 | 485 ft | 47 kts | 78° |
| 2026-04-23 09:48 | -42.83522 | 147.48903 | 464 ft | 48 kts | 13° |
| 2026-04-23 09:48 | -42.83196 | 147.48840 | 290 ft | 52 kts | 303° |
| 2026-04-23 09:49 | -42.82997 | 147.48508 | 136 ft | 36 kts | 272° |
| 2026-04-23 09:49 | -42.82944 | 147.48265 | 59 ft | 19 kts | 278° |
| 2026-04-23 09:49 | -42.82927 | 147.48181 | 66 ft | 3 kts | 289° |
| 2026-04-23 09:49 | -42.82925 | 147.48160 | 57 ft | 6 kts | 296° |
| 2026-04-23 09:50 | -42.82906 | 147.48076 | 48 ft | 8 kts | 283° |
| 2026-04-23 09:50 | -42.82892 | 147.48004 | 52 ft | 7 kts | 284° |
| 2026-04-23 09:50 | -42.82879 | 147.47943 | 55 ft | 6 kts | 284° |
| 2026-04-23 09:50 | -42.82866 | 147.47879 | 57 ft | 9 kts | 282° |
| 2026-04-23 09:51 | -42.82836 | 147.47722 | 137 ft | 30 kts | 284° |
| 2026-04-23 09:51 | -42.82729 | 147.47235 | 293 ft | 73 kts | 286° |
| 2026-04-23 09:51 | -42.82573 | 147.46481 | 503 ft | 88 kts | 284° |
| 2026-04-23 09:51 | -42.82664 | 147.45700 | 770 ft | 94 kts | 229° |
| 2026-04-23 09:52 | -42.83331 | 147.45493 | 839 ft | 111 kts | 160° |
| 2026-04-23 09:52 | -42.83741 | 147.46332 | 721 ft | 117 kts | 88° |
| 2026-04-23 09:52 | -42.83744 | 147.47395 | 591 ft | 105 kts | 77° |
| 2026-04-23 09:52 | -42.83659 | 147.48308 | 520 ft | 87 kts | 74° |
| 2026-04-23 09:53 | -42.83553 | 147.49002 | 532 ft | 59 kts | 41° |
| 2026-04-23 09:53 | -42.83251 | 147.49063 | 331 ft | 45 kts | 304° |
| 2026-04-23 09:53 | -42.83067 | 147.48741 | 215 ft | 43 kts | 279° |
| 2026-04-23 09:53 | -42.82962 | 147.48346 | 100 ft | 44 kts | 276° |
| 2026-04-23 09:54 | -42.82898 | 147.48022 | 50 ft | 20 kts | 283° |
| 2026-04-23 09:54 | -42.82880 | 147.47937 | 61 ft | 7 kts | 290° |
| 2026-04-23 09:54 | -42.82855 | 147.47807 | 81 ft | 23 kts | 289° |
| 2026-04-23 09:54 | -42.82778 | 147.47407 | 221 ft | 63 kts | 282° |
| 2026-04-23 09:55 | -42.82662 | 147.46703 | 387 ft | 87 kts | 280° |
| 2026-04-23 09:55 | -42.82719 | 147.45868 | 559 ft | 97 kts | 233° |
| 2026-04-23 09:55 | -42.83377 | 147.45725 | 544 ft | 110 kts | 143° |
| 2026-04-23 09:55 | -42.83730 | 147.46634 | 552 ft | 107 kts | 97° |
| 2026-04-23 09:56 | -42.83881 | 147.47610 | 512 ft | 104 kts | 88° |
| 2026-04-23 09:56 | -42.83931 | 147.48535 | 496 ft | 90 kts | 79° |
| 2026-04-23 09:56 | -42.83879 | 147.49313 | 545 ft | 71 kts | 51° |
| 2026-04-23 09:56 | -42.83521 | 147.49551 | 412 ft | 57 kts | 330° |
| 2026-04-23 09:57 | -42.83230 | 147.49265 | 245 ft | 47 kts | 288° |
| 2026-04-23 09:57 | -42.83086 | 147.48923 | 198 ft | 38 kts | 274° |
| 2026-04-23 09:57 | -42.83012 | 147.48602 | 140 ft | 33 kts | 277° |
| 2026-04-23 09:57 | -42.82950 | 147.48279 | 79 ft | 34 kts | 276° |
| 2026-04-23 09:58 | -42.82904 | 147.48058 | 45 ft | 9 kts | 280° |
| 2026-04-23 09:58 | -42.82890 | 147.47984 | 50 ft | 19 kts | 289° |
| 2026-04-23 09:58 | -42.82832 | 147.47673 | 173 ft | 49 kts | 279° |
| 2026-04-23 09:58 | -42.82779 | 147.47316 | 296 ft | 66 kts | 278° |
| 2026-04-23 09:59 | -42.82713 | 147.46318 | 518 ft | 90 kts | 269° |
| 2026-04-23 09:59 | -42.82885 | 147.45468 | 574 ft | 106 kts | 225° |
| 2026-04-23 09:59 | -42.83591 | 147.45326 | 578 ft | 112 kts | 148° |
| 2026-04-23 09:59 | -42.83868 | 147.46223 | 546 ft | 104 kts | 83° |
| 2026-04-23 10:00 | -42.83833 | 147.47172 | 524 ft | 96 kts | 73° |
| 2026-04-23 10:00 | -42.83742 | 147.48038 | 527 ft | 90 kts | 69° |
| 2026-04-23 10:00 | -42.83614 | 147.48857 | 519 ft | 87 kts | 65° |
| 2026-04-23 10:00 | -42.83174 | 147.49033 | 372 ft | 85 kts | 297° |
| 2026-04-23 10:01 | -42.82966 | 147.48331 | 88 ft | 69 kts | 271° |
| 2026-04-23 10:01 | -42.82878 | 147.47919 | 65 ft | 23 kts | 283° |
| 2026-04-23 10:01 | -42.82854 | 147.47810 | 62 ft | 8 kts | 267° |
| 2026-04-23 10:01 | -42.82874 | 147.47743 | 59 ft | 5 kts | 208° |
| 2026-04-23 10:02 | -42.82882 | 147.47736 | 55 ft | 0 kts | 198° |